Terminal Aerodrome Forecast
Issued by NWS Pittsburgh, PA

Current Version | Previous Version | Graphics & Text | Print | Product List | Glossary On
Versions: 1 2 3 4 5 6 7 8 9 10 11 12 13 14 15 16 17 18 19 20 21 22 23 24 25 26 27 28
000
FTUS41 KPBZ 260317 AAA
TAFPIT
TAF AMD
KPIT 260317Z 2603/2706 04006KT P6SM OVC080
     FM260800 02006KT P6SM BKN080
     FM261500 04005KT P6SM BKN050
     FM270000 33008KT P6SM SCT050=

USA.gov is the U.S. government's official web portal to all federal, state and local government web resources and services.